LGL9514 EDDH-ELLX
Flight info
| Callsign | LGL9514 |
|---|---|
| Flight time | 1h 11m |
| Altitude | 22000 |
| Route | HABFU1G/33 HABFU Y348 MAWEQ Z718 OSNAD M170 HMM N853 IRBUP Z717 NEREL T855 LNO |
| Aircraft | DH8D/M-SDE2E3FGRY/H |
Departure
| Time | 2026-04-30 19:27 |
|---|---|
| Airport | Hamburg Helmut Schmidt Airport (EDDH) |
Arrival
| Time | 2026-04-30 20:39 |
|---|---|
| Airport | Luxembourg-Findel International Airport (ELLX) |
| Time | Latitude | Longitude | Altitude | Speed | Heading |
|---|---|---|---|---|---|
| 2026-04-30 18:34 | 53.63041 | 10.00043 | 49 ft | 0 kts | 279° |
| 2026-04-30 19:18 | 53.63042 | 10.00036 | 49 ft | 3 kts | 279° |
| 2026-04-30 19:19 | 53.63038 | 9.99983 | 48 ft | 5 kts | 234° |
| 2026-04-30 19:19 | 53.63002 | 9.99956 | 48 ft | 6 kts | 170° |
| 2026-04-30 19:19 | 53.62935 | 10.00009 | 48 ft | 4 kts | 152° |
| 2026-04-30 19:20 | 53.62907 | 10.00033 | 48 ft | 4 kts | 157° |
| 2026-04-30 19:20 | 53.62878 | 10.00037 | 48 ft | 4 kts | 193° |
| 2026-04-30 19:20 | 53.62848 | 9.99978 | 48 ft | 3 kts | 246° |
| 2026-04-30 19:21 | 53.62842 | 9.99956 | 48 ft | 0 kts | 244° |
| 2026-04-30 19:24 | 53.62809 | 9.99844 | 48 ft | 4 kts | 248° |
| 2026-04-30 19:25 | 53.62825 | 9.99780 | 48 ft | 0 kts | 333° |
| 2026-04-30 19:26 | 53.62859 | 9.99752 | 48 ft | 20 kts | 334° |
| 2026-04-30 19:27 | 53.63966 | 9.98798 | 62 ft | 147 kts | 333° |
| 2026-04-30 19:27 | 53.65845 | 9.97323 | 1029 ft | 157 kts | 339° |
| 2026-04-30 19:28 | 53.66878 | 9.96554 | 1481 ft | 170 kts | 339° |
| 2026-04-30 19:28 | 53.69284 | 9.94671 | 2141 ft | 207 kts | 338° |
| 2026-04-30 19:29 | 53.71485 | 9.91426 | 2855 ft | 239 kts | 285° |
| 2026-04-30 19:29 | 53.71354 | 9.88729 | 3619 ft | 232 kts | 253° |
| 2026-04-30 19:30 | 53.69831 | 9.80886 | 5516 ft | 241 kts | 251° |
| 2026-04-30 19:30 | 53.68758 | 9.75459 | 6746 ft | 248 kts | 251° |
| 2026-04-30 19:31 | 53.67674 | 9.69946 | 8019 ft | 253 kts | 252° |
| 2026-04-30 19:31 | 53.67119 | 9.67129 | 8644 ft | 256 kts | 252° |
| 2026-04-30 19:31 | 53.65984 | 9.61382 | 9746 ft | 265 kts | 252° |
| 2026-04-30 19:32 | 53.65273 | 9.58528 | 10253 ft | 272 kts | 234° |
| 2026-04-30 19:32 | 53.63843 | 9.56543 | 10872 ft | 263 kts | 205° |
| 2026-04-30 19:32 | 53.62258 | 9.55102 | 11471 ft | 263 kts | 205° |
| 2026-04-30 19:32 | 53.60653 | 9.53628 | 11995 ft | 266 kts | 205° |
| 2026-04-30 19:33 | 53.58996 | 9.52113 | 12543 ft | 268 kts | 205° |
| 2026-04-30 19:33 | 53.57368 | 9.50626 | 13043 ft | 271 kts | 205° |
| 2026-04-30 19:33 | 53.55702 | 9.49105 | 13591 ft | 273 kts | 205° |
| 2026-04-30 19:33 | 53.54034 | 9.47582 | 14120 ft | 276 kts | 205° |
| 2026-04-30 19:34 | 53.52334 | 9.46032 | 14620 ft | 279 kts | 205° |
| 2026-04-30 19:34 | 53.50634 | 9.44482 | 15144 ft | 280 kts | 205° |
| 2026-04-30 19:34 | 53.47171 | 9.41327 | 16078 ft | 285 kts | 205° |
| 2026-04-30 19:35 | 53.45446 | 9.39760 | 16500 ft | 288 kts | 205° |
| 2026-04-30 19:35 | 53.43695 | 9.38168 | 16931 ft | 289 kts | 205° |
| 2026-04-30 19:35 | 53.41902 | 9.36541 | 17375 ft | 291 kts | 205° |
| 2026-04-30 19:35 | 53.40128 | 9.34931 | 17806 ft | 292 kts | 205° |
| 2026-04-30 19:36 | 53.38356 | 9.33324 | 18223 ft | 292 kts | 205° |
| 2026-04-30 19:36 | 53.36588 | 9.31723 | 18622 ft | 292 kts | 205° |
| 2026-04-30 19:36 | 53.33004 | 9.28496 | 19411 ft | 293 kts | 203° |
| 2026-04-30 19:37 | 53.31091 | 9.27452 | 19771 ft | 288 kts | 187° |
| 2026-04-30 19:37 | 53.29105 | 9.26867 | 20160 ft | 288 kts | 186° |
| 2026-04-30 19:37 | 53.27123 | 9.26289 | 20355 ft | 296 kts | 186° |
| 2026-04-30 19:37 | 53.25062 | 9.25690 | 20412 ft | 308 kts | 186° |
| 2026-04-30 19:38 | 53.22906 | 9.25065 | 20428 ft | 320 kts | 186° |
| 2026-04-30 19:38 | 53.20677 | 9.24415 | 20430 ft | 329 kts | 186° |
| 2026-04-30 19:38 | 53.18412 | 9.23749 | 20646 ft | 329 kts | 186° |
| 2026-04-30 19:38 | 53.16179 | 9.22774 | 20839 ft | 334 kts | 201° |
| 2026-04-30 19:39 | 53.14148 | 9.20909 | 21035 ft | 337 kts | 208° |
| 2026-04-30 19:39 | 53.12123 | 9.18880 | 21246 ft | 337 kts | 209° |
| 2026-04-30 19:39 | 53.10110 | 9.16857 | 21417 ft | 339 kts | 209° |
| 2026-04-30 19:39 | 53.08098 | 9.14834 | 21623 ft | 339 kts | 209° |
| 2026-04-30 19:40 | 53.06080 | 9.12809 | 21808 ft | 340 kts | 209° |
| 2026-04-30 19:40 | 53.04059 | 9.10783 | 21989 ft | 340 kts | 209° |
| 2026-04-30 19:40 | 53.02054 | 9.08774 | 22183 ft | 340 kts | 209° |
| 2026-04-30 19:40 | 53.00016 | 9.06736 | 22346 ft | 341 kts | 209° |
| 2026-04-30 19:41 | 52.97975 | 9.04699 | 22405 ft | 345 kts | 209° |
| 2026-04-30 19:41 | 52.95912 | 9.02642 | 22418 ft | 350 kts | 209° |
| 2026-04-30 19:41 | 52.93806 | 9.00543 | 22418 ft | 355 kts | 209° |
| 2026-04-30 19:41 | 52.91673 | 8.98420 | 22422 ft | 358 kts | 209° |
| 2026-04-30 19:42 | 52.89542 | 8.96302 | 22435 ft | 362 kts | 209° |
| 2026-04-30 19:42 | 52.87494 | 8.94268 | 22423 ft | 361 kts | 209° |
| 2026-04-30 19:42 | 52.85466 | 8.92258 | 22420 ft | 361 kts | 209° |
| 2026-04-30 19:42 | 52.83551 | 8.90360 | 22418 ft | 361 kts | 209° |
| 2026-04-30 19:43 | 52.81224 | 8.88053 | 22418 ft | 362 kts | 209° |
| 2026-04-30 19:43 | 52.79357 | 8.86207 | 22419 ft | 362 kts | 209° |
| 2026-04-30 19:43 | 52.77055 | 8.83933 | 22417 ft | 362 kts | 209° |
| 2026-04-30 19:44 | 52.72784 | 8.79725 | 22416 ft | 364 kts | 209° |
| 2026-04-30 19:44 | 52.70597 | 8.77573 | 22418 ft | 366 kts | 209° |
| 2026-04-30 19:44 | 52.68425 | 8.75440 | 22417 ft | 368 kts | 209° |
| 2026-04-30 19:44 | 52.66222 | 8.73276 | 22414 ft | 369 kts | 209° |
| 2026-04-30 19:45 | 52.63997 | 8.71095 | 22415 ft | 370 kts | 209° |
| 2026-04-30 19:45 | 52.61790 | 8.68934 | 22411 ft | 371 kts | 209° |
| 2026-04-30 19:45 | 52.59573 | 8.66765 | 22407 ft | 371 kts | 209° |
| 2026-04-30 19:45 | 52.57368 | 8.64611 | 22409 ft | 372 kts | 209° |
| 2026-04-30 19:46 | 52.55156 | 8.62453 | 22404 ft | 372 kts | 209° |
| 2026-04-30 19:46 | 52.52939 | 8.60292 | 22403 ft | 372 kts | 209° |
| 2026-04-30 19:46 | 52.50694 | 8.58106 | 22401 ft | 371 kts | 209° |
| 2026-04-30 19:46 | 52.48495 | 8.55968 | 22401 ft | 370 kts | 209° |
| 2026-04-30 19:47 | 52.46261 | 8.53798 | 22402 ft | 371 kts | 209° |
| 2026-04-30 19:47 | 52.44779 | 8.52360 | 22404 ft | 371 kts | 209° |
| 2026-04-30 19:47 | 52.41844 | 8.49517 | 22403 ft | 371 kts | 208° |
| 2026-04-30 19:47 | 52.39627 | 8.47371 | 22399 ft | 372 kts | 208° |
| 2026-04-30 19:48 | 52.37393 | 8.45212 | 22399 ft | 372 kts | 208° |
| 2026-04-30 19:48 | 52.35165 | 8.43061 | 22398 ft | 372 kts | 208° |
| 2026-04-30 19:48 | 52.32933 | 8.40908 | 22397 ft | 372 kts | 208° |
| 2026-04-30 19:48 | 52.30712 | 8.38770 | 22399 ft | 372 kts | 208° |
| 2026-04-30 19:49 | 52.28509 | 8.36650 | 22398 ft | 372 kts | 208° |
| 2026-04-30 19:49 | 52.24108 | 8.32423 | 22398 ft | 367 kts | 208° |
| 2026-04-30 19:49 | 52.21920 | 8.30326 | 22402 ft | 368 kts | 208° |
| 2026-04-30 19:50 | 52.19998 | 8.28330 | 22382 ft | 367 kts | 215° |
| 2026-04-30 19:50 | 52.18198 | 8.25542 | 22410 ft | 365 kts | 224° |
| 2026-04-30 19:50 | 52.16380 | 8.22433 | 22412 ft | 366 kts | 224° |
| 2026-04-30 19:50 | 52.14619 | 8.19420 | 22408 ft | 368 kts | 224° |
| 2026-04-30 19:51 | 52.12839 | 8.16383 | 22401 ft | 370 kts | 224° |
| 2026-04-30 19:51 | 52.11057 | 8.13351 | 22395 ft | 371 kts | 224° |
| 2026-04-30 19:51 | 52.09282 | 8.10340 | 22391 ft | 372 kts | 224° |
| 2026-04-30 19:51 | 52.07486 | 8.07301 | 22385 ft | 373 kts | 224° |
| 2026-04-30 19:52 | 52.05714 | 8.04307 | 22382 ft | 373 kts | 224° |
| 2026-04-30 19:52 | 52.03899 | 8.01247 | 22381 ft | 373 kts | 224° |
| 2026-04-30 19:52 | 52.02112 | 7.98240 | 22379 ft | 373 kts | 224° |
| 2026-04-30 19:52 | 52.00304 | 7.95199 | 22378 ft | 372 kts | 224° |
| 2026-04-30 19:53 | 51.98517 | 7.92198 | 22377 ft | 372 kts | 224° |
| 2026-04-30 19:53 | 51.96727 | 7.89197 | 22374 ft | 372 kts | 224° |
| 2026-04-30 19:53 | 51.94920 | 7.86170 | 22377 ft | 373 kts | 224° |
| 2026-04-30 19:53 | 51.93124 | 7.83166 | 22376 ft | 373 kts | 224° |
| 2026-04-30 19:54 | 51.91340 | 7.80184 | 22372 ft | 371 kts | 224° |
| 2026-04-30 19:54 | 51.89548 | 7.77195 | 22374 ft | 369 kts | 224° |
| 2026-04-30 19:54 | 51.87777 | 7.74244 | 22373 ft | 369 kts | 224° |
| 2026-04-30 19:54 | 51.85953 | 7.71322 | 22360 ft | 367 kts | 219° |
| 2026-04-30 19:55 | 51.83825 | 7.69159 | 22394 ft | 362 kts | 205° |
| 2026-04-30 19:55 | 51.81581 | 7.67314 | 22388 ft | 362 kts | 204° |
| 2026-04-30 19:55 | 51.79346 | 7.65489 | 22373 ft | 361 kts | 204° |
| 2026-04-30 19:55 | 51.77110 | 7.63667 | 22371 ft | 361 kts | 204° |
| 2026-04-30 19:56 | 51.74863 | 7.61834 | 22362 ft | 362 kts | 204° |
| 2026-04-30 19:56 | 51.72629 | 7.60011 | 22362 ft | 362 kts | 204° |
| 2026-04-30 19:56 | 51.70370 | 7.58331 | 22357 ft | 359 kts | 198° |
| 2026-04-30 19:56 | 51.68012 | 7.57090 | 22375 ft | 356 kts | 194° |
| 2026-04-30 19:57 | 51.65645 | 7.55919 | 22365 ft | 356 kts | 194° |
| 2026-04-30 19:57 | 51.63278 | 7.54746 | 22362 ft | 355 kts | 194° |
| 2026-04-30 19:57 | 51.60942 | 7.53587 | 22364 ft | 355 kts | 194° |
| 2026-04-30 19:57 | 51.58580 | 7.52413 | 22365 ft | 355 kts | 194° |
| 2026-04-30 19:58 | 51.56401 | 7.51327 | 22364 ft | 353 kts | 194° |
| 2026-04-30 19:58 | 51.53993 | 7.50126 | 22367 ft | 352 kts | 194° |
| 2026-04-30 19:58 | 51.51705 | 7.48981 | 22364 ft | 352 kts | 195° |
| 2026-04-30 19:58 | 51.49504 | 7.47256 | 22336 ft | 357 kts | 216° |
| 2026-04-30 19:59 | 51.47928 | 7.44187 | 22378 ft | 357 kts | 238° |
| 2026-04-30 19:59 | 51.46740 | 7.40728 | 22357 ft | 360 kts | 241° |
| 2026-04-30 19:59 | 51.44373 | 7.33614 | 22347 ft | 364 kts | 240° |
| 2026-04-30 20:00 | 51.43203 | 7.30099 | 22364 ft | 363 kts | 240° |
| 2026-04-30 20:00 | 51.41912 | 7.26658 | 22355 ft | 362 kts | 233° |
| 2026-04-30 20:00 | 51.40420 | 7.23407 | 22353 ft | 363 kts | 231° |
| 2026-04-30 20:00 | 51.38889 | 7.20135 | 22350 ft | 365 kts | 231° |
| 2026-04-30 20:01 | 51.35920 | 7.13793 | 22348 ft | 361 kts | 231° |
| 2026-04-30 20:01 | 51.34434 | 7.10620 | 22346 ft | 361 kts | 231° |
| 2026-04-30 20:01 | 51.33190 | 7.07964 | 22342 ft | 360 kts | 231° |
| 2026-04-30 20:02 | 51.30150 | 7.01483 | 22340 ft | 356 kts | 231° |
| 2026-04-30 20:03 | 51.25516 | 6.91622 | 22337 ft | 358 kts | 231° |
| 2026-04-30 20:03 | 51.24005 | 6.88414 | 22331 ft | 360 kts | 231° |
| 2026-04-30 20:03 | 51.22503 | 6.85226 | 22328 ft | 360 kts | 231° |
| 2026-04-30 20:03 | 51.21022 | 6.82092 | 22335 ft | 361 kts | 231° |
| 2026-04-30 20:04 | 51.19514 | 6.78899 | 22330 ft | 361 kts | 231° |
| 2026-04-30 20:04 | 51.18043 | 6.75790 | 22326 ft | 360 kts | 231° |
| 2026-04-30 20:04 | 51.16578 | 6.72700 | 22327 ft | 362 kts | 231° |
| 2026-04-30 20:05 | 51.13553 | 6.66325 | 22327 ft | 363 kts | 231° |
| 2026-04-30 20:05 | 51.12011 | 6.63079 | 22338 ft | 364 kts | 231° |
| 2026-04-30 20:05 | 51.08948 | 6.56684 | 22319 ft | 364 kts | 229° |
| 2026-04-30 20:06 | 51.07254 | 6.53772 | 22325 ft | 362 kts | 223° |
| 2026-04-30 20:06 | 51.05441 | 6.50916 | 22326 ft | 362 kts | 223° |
| 2026-04-30 20:06 | 51.03652 | 6.48105 | 22322 ft | 363 kts | 223° |
| 2026-04-30 20:06 | 51.01859 | 6.45287 | 22323 ft | 362 kts | 223° |
| 2026-04-30 20:07 | 51.00111 | 6.42538 | 22313 ft | 362 kts | 223° |
| 2026-04-30 20:07 | 50.98286 | 6.39668 | 22321 ft | 362 kts | 223° |
| 2026-04-30 20:07 | 50.94738 | 6.34099 | 22311 ft | 363 kts | 222° |
| 2026-04-30 20:08 | 50.92986 | 6.31349 | 22308 ft | 359 kts | 222° |
| 2026-04-30 20:08 | 50.91204 | 6.28554 | 22320 ft | 358 kts | 222° |
| 2026-04-30 20:08 | 50.89523 | 6.25921 | 22321 ft | 358 kts | 222° |
| 2026-04-30 20:08 | 50.87692 | 6.23057 | 22323 ft | 358 kts | 222° |
| 2026-04-30 20:09 | 50.85931 | 6.20300 | 22318 ft | 359 kts | 222° |
| 2026-04-30 20:09 | 50.84198 | 6.17593 | 22315 ft | 358 kts | 222° |
| 2026-04-30 20:09 | 50.80657 | 6.12071 | 22316 ft | 360 kts | 222° |
| 2026-04-30 20:10 | 50.77111 | 6.06551 | 22321 ft | 361 kts | 221° |
| 2026-04-30 20:10 | 50.75343 | 6.03804 | 22329 ft | 360 kts | 222° |
| 2026-04-30 20:10 | 50.73603 | 6.00942 | 22305 ft | 362 kts | 226° |
| 2026-04-30 20:11 | 50.70347 | 5.94893 | 22308 ft | 360 kts | 227° |
| 2026-04-30 20:11 | 50.68726 | 5.91885 | 22308 ft | 361 kts | 227° |
| 2026-04-30 20:11 | 50.67122 | 5.88923 | 22306 ft | 362 kts | 227° |
| 2026-04-30 20:12 | 50.63940 | 5.82805 | 22132 ft | 366 kts | 232° |
| 2026-04-30 20:12 | 50.62445 | 5.79519 | 21807 ft | 374 kts | 232° |
| 2026-04-30 20:12 | 50.60817 | 5.76172 | 21140 ft | 389 kts | 225° |
| 2026-04-30 20:13 | 50.58612 | 5.73873 | 20583 ft | 373 kts | 197° |
| 2026-04-30 20:13 | 50.56170 | 5.73338 | 20351 ft | 340 kts | 171° |
| 2026-04-30 20:13 | 50.53949 | 5.74193 | 20106 ft | 318 kts | 158° |
| 2026-04-30 20:13 | 50.51903 | 5.75260 | 19795 ft | 305 kts | 157° |
| 2026-04-30 20:14 | 50.49948 | 5.76318 | 19493 ft | 294 kts | 156° |
| 2026-04-30 20:14 | 50.48056 | 5.77365 | 19207 ft | 284 kts | 156° |
| 2026-04-30 20:14 | 50.46238 | 5.78383 | 18918 ft | 273 kts | 156° |
| 2026-04-30 20:14 | 50.44441 | 5.79401 | 18674 ft | 282 kts | 156° |
| 2026-04-30 20:15 | 50.42566 | 5.80469 | 18377 ft | 295 kts | 156° |
| 2026-04-30 20:15 | 50.40602 | 5.81597 | 18074 ft | 307 kts | 155° |
| 2026-04-30 20:15 | 50.38544 | 5.82783 | 17753 ft | 316 kts | 156° |
| 2026-04-30 20:15 | 50.36474 | 5.83979 | 17424 ft | 324 kts | 156° |
| 2026-04-30 20:16 | 50.34333 | 5.85216 | 17087 ft | 330 kts | 156° |
| 2026-04-30 20:16 | 50.32173 | 5.86465 | 16746 ft | 334 kts | 156° |
| 2026-04-30 20:16 | 50.29990 | 5.87741 | 16403 ft | 337 kts | 156° |
| 2026-04-30 20:16 | 50.27793 | 5.89002 | 16067 ft | 340 kts | 157° |
| 2026-04-30 20:17 | 50.25563 | 5.90283 | 15716 ft | 341 kts | 156° |
| 2026-04-30 20:17 | 50.23374 | 5.91549 | 15362 ft | 330 kts | 156° |
| 2026-04-30 20:17 | 50.21265 | 5.92770 | 15036 ft | 319 kts | 156° |
| 2026-04-30 20:17 | 50.19212 | 5.93958 | 14721 ft | 308 kts | 156° |
| 2026-04-30 20:18 | 50.17228 | 5.95106 | 14415 ft | 299 kts | 156° |
| 2026-04-30 20:18 | 50.15306 | 5.96216 | 14118 ft | 291 kts | 156° |
| 2026-04-30 20:18 | 50.13426 | 5.97302 | 13829 ft | 285 kts | 156° |
| 2026-04-30 20:18 | 50.11625 | 5.98342 | 13550 ft | 279 kts | 156° |
| 2026-04-30 20:19 | 50.09832 | 5.99375 | 13272 ft | 271 kts | 156° |
| 2026-04-30 20:19 | 50.08660 | 6.00050 | 13091 ft | 267 kts | 156° |
| 2026-04-30 20:19 | 50.06455 | 6.01321 | 12754 ft | 261 kts | 156° |
| 2026-04-30 20:19 | 50.04760 | 6.02296 | 12494 ft | 257 kts | 156° |
| 2026-04-30 20:20 | 50.03093 | 6.03255 | 12237 ft | 255 kts | 156° |
| 2026-04-30 20:20 | 50.01460 | 6.04191 | 11982 ft | 250 kts | 156° |
| 2026-04-30 20:20 | 49.99872 | 6.05102 | 11736 ft | 247 kts | 156° |
| 2026-04-30 20:20 | 49.98271 | 6.06020 | 11486 ft | 243 kts | 156° |
| 2026-04-30 20:21 | 49.96699 | 6.06921 | 11245 ft | 241 kts | 156° |
| 2026-04-30 20:21 | 49.95137 | 6.07817 | 11000 ft | 240 kts | 156° |
| 2026-04-30 20:21 | 49.93560 | 6.08720 | 10752 ft | 239 kts | 156° |
| 2026-04-30 20:21 | 49.92000 | 6.09612 | 10511 ft | 238 kts | 156° |
| 2026-04-30 20:22 | 49.90459 | 6.10491 | 10284 ft | 237 kts | 156° |
| 2026-04-30 20:22 | 49.89188 | 6.11217 | 10091 ft | 235 kts | 156° |
| 2026-04-30 20:22 | 49.87697 | 6.12067 | 9856 ft | 233 kts | 156° |
| 2026-04-30 20:22 | 49.86106 | 6.12724 | 9577 ft | 237 kts | 174° |
| 2026-04-30 20:23 | 49.84467 | 6.12226 | 9355 ft | 240 kts | 193° |
| 2026-04-30 20:23 | 49.82880 | 6.11423 | 9116 ft | 240 kts | 193° |
| 2026-04-30 20:23 | 49.81288 | 6.10609 | 8879 ft | 240 kts | 193° |
| 2026-04-30 20:23 | 49.79697 | 6.09798 | 8632 ft | 240 kts | 193° |
| 2026-04-30 20:24 | 49.78137 | 6.09005 | 8390 ft | 238 kts | 193° |
| 2026-04-30 20:24 | 49.76584 | 6.08220 | 8157 ft | 235 kts | 193° |
| 2026-04-30 20:24 | 49.75038 | 6.07442 | 7916 ft | 234 kts | 193° |
| 2026-04-30 20:24 | 49.73500 | 6.06667 | 7681 ft | 234 kts | 193° |
| 2026-04-30 20:25 | 49.71228 | 6.03127 | 7320 ft | 241 kts | 244° |
| 2026-04-30 20:25 | 49.70636 | 6.00730 | 7214 ft | 236 kts | 245° |
| 2026-04-30 20:26 | 49.69517 | 5.96099 | 7007 ft | 225 kts | 245° |
| 2026-04-30 20:26 | 49.68446 | 5.91598 | 6810 ft | 226 kts | 245° |
| 2026-04-30 20:26 | 49.67912 | 5.89315 | 6725 ft | 231 kts | 248° |
| 2026-04-30 20:27 | 49.67151 | 5.84438 | 6547 ft | 239 kts | 253° |
| 2026-04-30 20:27 | 49.66388 | 5.79314 | 6358 ft | 248 kts | 253° |
| 2026-04-30 20:28 | 49.65598 | 5.74057 | 6133 ft | 257 kts | 253° |
| 2026-04-30 20:28 | 49.64196 | 5.69364 | 5605 ft | 228 kts | 212° |
| 2026-04-30 20:29 | 49.61452 | 5.68371 | 5097 ft | 200 kts | 174° |
| 2026-04-30 20:30 | 49.57013 | 5.68247 | 4397 ft | 210 kts | 173° |
| 2026-04-30 20:30 | 49.53501 | 5.70404 | 4272 ft | 177 kts | 150° |
| 2026-04-30 20:31 | 49.50345 | 5.73443 | 4258 ft | 180 kts | 120° |
| 2026-04-30 20:32 | 49.50035 | 5.79252 | 4274 ft | 192 kts | 94° |
| 2026-04-30 20:32 | 49.49990 | 5.83502 | 4270 ft | 203 kts | 94° |
| 2026-04-30 20:33 | 49.49964 | 5.85697 | 4270 ft | 206 kts | 95° |
| 2026-04-30 20:33 | 49.49881 | 5.89832 | 4249 ft | 202 kts | 61° |
| 2026-04-30 20:33 | 49.51084 | 5.91093 | 4276 ft | 216 kts | 31° |
| 2026-04-30 20:34 | 49.52694 | 5.94475 | 4275 ft | 197 kts | 70° |
| 2026-04-30 20:34 | 49.53986 | 5.97895 | 4264 ft | 163 kts | 69° |
| 2026-04-30 20:35 | 49.54531 | 5.99385 | 4103 ft | 160 kts | 68° |
| 2026-04-30 20:35 | 49.55085 | 6.00925 | 3912 ft | 170 kts | 68° |
| 2026-04-30 20:35 | 49.56249 | 6.04002 | 3388 ft | 159 kts | 68° |
| 2026-04-30 20:36 | 49.56781 | 6.05428 | 3142 ft | 147 kts | 68° |
| 2026-04-30 20:36 | 49.57272 | 6.06707 | 2903 ft | 131 kts | 69° |
| 2026-04-30 20:36 | 49.58157 | 6.09166 | 2662 ft | 138 kts | 67° |
| 2026-04-30 20:37 | 49.58627 | 6.10392 | 2467 ft | 126 kts | 64° |
| 2026-04-30 20:37 | 49.59084 | 6.11499 | 2212 ft | 121 kts | 64° |
| 2026-04-30 20:37 | 49.59495 | 6.12594 | 2204 ft | 119 kts | 68° |
| 2026-04-30 20:37 | 49.59889 | 6.13706 | 2142 ft | 121 kts | 66° |
| 2026-04-30 20:38 | 49.60304 | 6.14830 | 1910 ft | 123 kts | 64° |
| 2026-04-30 20:38 | 49.60731 | 6.16001 | 1703 ft | 124 kts | 63° |
| 2026-04-30 20:38 | 49.61156 | 6.17154 | 1502 ft | 122 kts | 61° |
| 2026-04-30 20:39 | 49.62005 | 6.19439 | 1240 ft | 120 kts | 61° |
| 2026-04-30 20:39 | 49.62357 | 6.20380 | 1239 ft | 78 kts | 60° |
| 2026-04-30 20:39 | 49.62564 | 6.20936 | 1239 ft | 33 kts | 59° |
| 2026-04-30 20:40 | 49.62801 | 6.21235 | 1239 ft | 11 kts | 31° |
| 2026-04-30 20:40 | 49.62858 | 6.21287 | 1239 ft | 8 kts | 31° |
| 2026-04-30 20:40 | 49.62899 | 6.21323 | 1239 ft | 5 kts | 19° |
| 2026-04-30 20:41 | 49.62954 | 6.21342 | 1239 ft | 3 kts | 9° |
| 2026-04-30 20:41 | 49.62983 | 6.21349 | 1239 ft | 5 kts | 9° |
| 2026-04-30 20:41 | 49.63020 | 6.21350 | 1239 ft | 7 kts | 346° |
| 2026-04-30 20:41 | 49.63064 | 6.21314 | 1239 ft | 5 kts | 339° |
| 2026-04-30 20:42 | 49.63098 | 6.21306 | 1239 ft | 6 kts | 3° |
| 2026-04-30 20:42 | 49.63139 | 6.21345 | 1239 ft | 6 kts | 59° |
| 2026-04-30 20:42 | 49.63153 | 6.21383 | 1239 ft | 0 kts | 59° |
| 2026-04-30 20:43 | 49.63155 | 6.21386 | 1239 ft | 0 kts | 59° |